Time;durP1;ratioP1;P1;durP2;ratioP2;P2;SDS_P1;SDS_P2;PMS_P1;PMS_P2;Temp;Humidity;BMP_temperature;BMP_pressure;BME280_temperature;BME280_humidity;BME280_pressure;Samples;Min_cycle;Max_cycle;Signal;HPM_P1;HPM_P2
2021/01/12 00:01:50;;;;;;;75.43;15.07;;;-0.30;86.00;;;;;;5033137;28;20210;-70
2021/01/12 00:04:16;;;;;;;77.07;15.52;;;-0.30;85.10;;;;;;5032985;28;20210;-69
2021/01/12 00:06:42;;;;;;;75.70;15.10;;;-0.30;84.10;;;;;;5032739;28;20573;-70
2021/01/12 00:09:10;;;;;;;75.25;15.25;;;-0.30;83.80;;;;;;5032008;28;20288;-69
2021/01/12 00:11:36;;;;;;;74.07;14.63;;;-0.30;84.00;;;;;;5032632;28;20324;-70
2021/01/12 00:14:02;;;;;;;77.65;15.18;;;-0.30;83.90;;;;;;5032682;28;20202;-69
2021/01/12 00:16:29;;;;;;;75.70;15.77;;;-0.30;83.60;;;;;;5032680;28;20217;-70
2021/01/12 00:18:55;;;;;;;74.35;14.80;;;-0.40;83.10;;;;;;5032188;28;20356;-70
2021/01/12 00:21:26;;;;;;;77.18;16.30;;;-0.40;84.00;;;;;;5032482;28;20280;-70
2021/01/12 00:23:52;;;;;;;72.47;15.43;;;-0.50;84.60;;;;;;5032197;28;20253;-69
2021/01/12 00:26:20;;;;;;;75.97;15.02;;;-0.50;85.10;;;;;;5032610;28;20221;-70
2021/01/12 00:28:46;;;;;;;76.80;15.75;;;-0.50;86.10;;;;;;5032271;28;20217;-69
2021/01/12 00:31:12;;;;;;;79.57;16.42;;;-0.60;86.80;;;;;;5032031;28;20631;-70
2021/01/12 00:33:38;;;;;;;74.22;15.00;;;-0.50;87.00;;;;;;5032267;28;20252;-70
2021/01/12 00:36:06;;;;;;;72.25;14.75;;;-0.50;86.80;;;;;;5031878;28;20208;-70
2021/01/12 00:38:33;;;;;;;74.57;14.90;;;-0.50;86.90;;;;;;5031920;28;20203;-69
2021/01/12 00:40:59;;;;;;;72.82;14.40;;;-0.50;85.90;;;;;;5032124;28;20230;-70
2021/01/12 00:43:26;;;;;;;76.10;15.05;;;-0.40;86.40;;;;;;5032263;28;20214;-70
2021/01/12 00:45:53;;;;;;;77.75;15.85;;;-0.40;86.50;;;;;;5031851;28;20217;-70
2021/01/12 00:48:19;;;;;;;75.60;16.17;;;-0.40;85.00;;;;;;5031681;28;20222;-70
2021/01/12 00:50:45;;;;;;;73.07;14.32;;;-0.30;85.50;;;;;;5031500;28;20253;-70
2021/01/12 00:53:12;;;;;;;72.78;15.13;;;-0.30;85.30;;;;;;5032148;28;20210;-70
2021/01/12 00:55:38;;;;;;;74.13;15.45;;;-0.30;84.80;;;;;;5031937;28;20210;-69
2021/01/12 00:58:05;;;;;;;73.32;14.98;;;-0.20;84.90;;;;;;5031772;28;20206;-69
2021/01/12 01:00:32;;;;;;;75.43;14.88;;;-0.20;84.50;;;;;;5031828;28;20227;-70
2021/01/12 01:02:58;;;;;;;72.97;14.82;;;-0.20;84.00;;;;;;5031712;28;20733;-70
2021/01/12 01:05:25;;;;;;;74.85;15.82;;;-0.20;83.60;;;;;;5031652;28;20268;-70
2021/01/12 01:07:51;;;;;;;75.57;14.23;;;-0.10;83.10;;;;;;5031249;28;20240;-70
2021/01/12 01:10:18;;;;;;;76.53;15.55;;;-0.10;82.50;;;;;;5031705;28;20254;-70
2021/01/12 01:12:44;;;;;;;72.80;13.80;;;-0.10;81.20;;;;;;5031231;28;20289;-70
2021/01/12 01:15:11;;;;;;;74.47;14.80;;;0.00;81.20;;;;;;5031800;28;20210;-70
2021/01/12 01:17:38;;;;;;;72.43;13.52;;;0.00;82.10;;;;;;5031166;28;20235;-69
2021/01/12 01:20:06;;;;;;;74.30;13.27;;;0.10;81.10;;;;;;5031376;28;20226;-70
2021/01/12 01:22:32;;;;;;;71.82;13.75;;;0.10;80.30;;;;;;5031472;28;20256;-70
2021/01/12 01:24:59;;;;;;;72.82;14.13;;;0.10;79.60;;;;;;5031119;28;20241;-70
2021/01/12 01:27:25;;;;;;;71.85;13.50;;;0.20;78.10;;;;;;5031347;28;20262;-70
2021/01/12 01:29:51;;;;;;;71.88;13.52;;;0.20;77.90;;;;;;5030881;28;20234;-70
2021/01/12 01:32:18;;;;;;;70.45;13.70;;;0.20;77.20;;;;;;5031371;28;20703;-70
2021/01/12 01:34:45;;;;;;;70.65;13.65;;;0.30;76.20;;;;;;5031486;28;20214;-70
2021/01/12 01:37:11;;;;;;;69.47;11.98;;;0.30;75.60;;;;;;5031527;28;20199;-70
2021/01/12 01:39:37;;;;;;;72.13;14.18;;;0.30;74.30;;;;;;5030862;28;20210;-70
2021/01/12 01:42:04;;;;;;;72.15;12.82;;;0.30;74.30;;;;;;5031362;28;20694;-70
2021/01/12 01:44:30;;;;;;;70.95;13.60;;;0.30;74.60;;;;;;5031231;28;20210;-70
2021/01/12 01:46:56;;;;;;;69.05;12.15;;;0.40;74.40;;;;;;5031055;28;20241;-70
2021/01/12 01:49:23;;;;;;;70.22;12.68;;;0.40;74.10;;;;;;5030853;28;20214;-71
2021/01/12 01:51:52;;;;;;;70.18;13.25;;;0.40;74.10;;;;;;5031143;28;20210;-70
2021/01/12 01:54:18;;;;;;;71.75;12.88;;;0.50;73.60;;;;;;5031179;28;20217;-70
2021/01/12 01:56:45;;;;;;;71.03;12.50;;;0.50;74.20;;;;;;5031218;28;20210;-70
2021/01/12 01:59:11;;;;;;;69.95;12.70;;;0.50;73.60;;;;;;5030703;28;20212;-71
2021/01/12 02:01:37;;;;;;;70.72;12.02;;;0.50;73.40;;;;;;5030862;28;20226;-71
2021/01/12 02:04:10;;;;;;;69.35;12.52;;;0.60;73.20;;;;;;5031322;28;20222;-70
2021/01/12 02:06:38;;;;;;;72.18;11.77;;;0.60;73.10;;;;;;5031055;28;20261;-70
2021/01/12 02:09:12;;;;;;;69.72;12.18;;;0.60;73.10;;;;;;5030846;28;20213;-70
2021/01/12 02:11:42;;;;;;;69.53;11.90;;;0.60;73.10;;;;;;5030954;28;20226;-70
2021/01/12 02:14:14;;;;;;;67.88;12.73;;;0.60;73.90;;;;;;5030937;28;20211;-70
2021/01/12 02:16:42;;;;;;;66.60;10.70;;;0.70;74.90;;;;;;5030793;28;20605;-69
2021/01/12 02:19:11;;;;;;;71.00;11.95;;;0.70;74.90;;;;;;5030905;28;20236;-70
2021/01/12 02:21:44;;;;;;;66.80;10.30;;;0.70;75.60;;;;;;5030672;28;20226;-70
2021/01/12 02:24:12;;;;;;;67.93;10.50;;;0.80;75.40;;;;;;5031104;28;20631;-70
2021/01/12 02:26:38;;;;;;;66.05;10.70;;;0.80;75.10;;;;;;5031113;28;20277;-71
2021/01/12 02:29:05;;;;;;;68.22;10.70;;;0.80;74.30;;;;;;5030897;28;20711;-70
2021/01/12 02:31:32;;;;;;;67.20;11.23;;;0.90;74.00;;;;;;5030587;28;20242;-69
2021/01/12 02:34:02;;;;;;;66.38;10.18;;;0.90;74.10;;;;;;5030897;28;20461;-70
2021/01/12 02:36:30;;;;;;;67.07;10.48;;;0.90;75.10;;;;;;5033553;28;20305;-70
2021/01/12 02:38:57;;;;;;;65.28;10.18;;;1.00;74.00;;;;;;5034057;28;20245;-70
2021/01/12 02:41:29;;;;;;;66.80;11.02;;;1.00;73.90;;;;;;5034560;28;20609;-70
2021/01/12 02:43:56;;;;;;;64.88;8.85;;;1.00;74.70;;;;;;5034263;28;20213;-70
2021/01/12 02:46:23;;;;;;;66.45;9.77;;;1.00;74.10;;;;;;5034479;28;20216;-70
2021/01/12 02:48:49;;;;;;;68.47;10.10;;;1.10;74.30;;;;;;5032646;28;20214;-71
2021/01/12 02:51:15;;;;;;;67.45;10.18;;;1.10;74.60;;;;;;5031825;28;20245;-70
2021/01/12 02:53:42;;;;;;;64.60;9.00;;;1.10;74.20;;;;;;5034212;28;20217;-70
2021/01/12 02:56:08;;;;;;;66.55;9.43;;;1.10;73.60;;;;;;5034301;28;20230;-69
2021/01/12 02:58:35;;;;;;;66.07;9.32;;;1.20;73.70;;;;;;5033559;28;20250;-71
2021/01/12 03:01:04;;;;;;;65.40;9.63;;;1.20;74.00;;;;;;5033930;28;20250;-70
2021/01/12 03:03:30;;;;;;;66.13;9.70;;;1.20;73.50;;;;;;5033741;28;20206;-70
2021/01/12 03:05:57;;;;;;;62.42;8.68;;;1.20;74.50;;;;;;5033943;28;20693;-70
2021/01/12 03:08:23;;;;;;;64.03;9.13;;;1.20;74.70;;;;;;5033459;28;20731;-70
2021/01/12 03:10:50;;;;;;;66.18;9.18;;;1.30;75.00;;;;;;5033950;28;20666;-70
2021/01/12 03:13:16;;;;;;;63.70;8.40;;;1.30;74.90;;;;;;5033845;28;20206;-70
2021/01/12 03:15:43;;;;;;;64.38;8.35;;;1.30;74.60;;;;;;5033706;28;20213;-70
2021/01/12 03:18:10;;;;;;;66.35;8.50;;;1.30;73.50;;;;;;5033314;28;20202;-70
2021/01/12 03:20:36;;;;;;;65.38;8.25;;;1.40;73.60;;;;;;5033648;28;20234;-70
2021/01/12 03:23:03;;;;;;;61.95;7.50;;;1.40;73.70;;;;;;5033826;28;20213;-70
2021/01/12 03:25:30;;;;;;;64.88;8.63;;;1.40;73.60;;;;;;5033601;28;20210;-70
2021/01/12 03:27:56;;;;;;;64.57;9.20;;;1.50;72.70;;;;;;5033199;28;20226;-70
2021/01/12 03:30:23;;;;;;;63.78;8.65;;;1.50;72.80;;;;;;5033642;28;20424;-70
2021/01/12 03:32:52;;;;;;;62.42;8.13;;;1.50;71.90;;;;;;5033246;28;20202;-70
2021/01/12 03:35:19;;;;;;;62.45;8.85;;;1.50;72.00;;;;;;5033458;28;20219;-70
2021/01/12 03:37:46;;;;;;;64.25;8.00;;;1.50;71.40;;;;;;5032925;28;20736;-69
2021/01/12 03:40:12;;;;;;;64.35;8.40;;;1.60;71.10;;;;;;5033402;28;20222;-70
2021/01/12 03:42:39;;;;;;;60.55;7.57;;;1.60;70.60;;;;;;5033234;28;20214;-71
2021/01/12 03:45:07;;;;;;;62.38;7.47;;;1.60;70.40;;;;;;5033149;28;20297;-70
2021/01/12 03:47:33;;;;;;;61.47;7.18;;;1.60;70.80;;;;;;5032182;28;20749;-70
2021/01/12 03:50:00;;;;;;;62.47;7.07;;;1.60;70.50;;;;;;5033145;28;20233;-70
2021/01/12 03:52:27;;;;;;;61.30;7.18;;;1.60;70.60;;;;;;5033456;28;20206;-70
2021/01/12 03:54:53;;;;;;;61.90;6.85;;;1.60;70.40;;;;;;5033428;28;20590;-71
2021/01/12 03:57:20;;;;;;;60.72;7.15;;;1.70;71.50;;;;;;5033162;28;20237;-70
2021/01/12 03:59:46;;;;;;;61.28;7.35;;;1.70;71.20;;;;;;5032739;28;20235;-71
2021/01/12 04:02:12;;;;;;;61.08;6.90;;;1.70;71.60;;;;;;5033097;28;20214;-70
2021/01/12 04:04:38;;;;;;;61.75;7.07;;;1.80;71.40;;;;;;5033135;28;20214;-70
2021/01/12 04:07:06;;;;;;;61.58;7.40;;;1.80;71.50;;;;;;5033009;28;20228;-70
2021/01/12 04:09:32;;;;;;;59.88;6.43;;;1.80;72.10;;;;;;5032541;28;20242;-71
2021/01/12 04:11:58;;;;;;;61.83;7.53;;;1.90;71.70;;;;;;5032853;28;20216;-70
2021/01/12 04:14:25;;;;;;;63.33;6.97;;;1.90;73.50;;;;;;5032428;28;20210;-70
2021/01/12 04:16:51;;;;;;;60.03;6.57;;;1.90;72.70;;;;;;5032591;28;20198;-70
2021/01/12 04:19:17;;;;;;;62.05;7.03;;;1.90;72.10;;;;;;5032449;28;20297;-71
2021/01/12 04:21:44;;;;;;;61.97;7.65;;;1.90;73.90;;;;;;5032689;28;20228;-70
2021/01/12 04:24:11;;;;;;;62.15;6.85;;;2.00;74.00;;;;;;5032536;28;20206;-70
2021/01/12 04:26:38;;;;;;;61.22;6.70;;;1.90;74.10;;;;;;5032828;28;20202;-70
2021/01/12 04:29:04;;;;;;;63.03;7.38;;;2.00;74.40;;;;;;5031894;28;20202;-72
2021/01/12 04:31:31;;;;;;;61.53;6.82;;;2.00;74.70;;;;;;5032100;28;20244;-70
2021/01/12 04:33:57;;;;;;;61.72;7.13;;;2.10;74.70;;;;;;5032247;28;20213;-69
2021/01/12 04:36:23;;;;;;;59.92;6.47;;;2.10;74.90;;;;;;5032070;28;20682;-70
2021/01/12 04:38:50;;;;;;;61.30;7.30;;;2.10;74.60;;;;;;5031875;28;20198;-70
2021/01/12 04:41:17;;;;;;;59.92;6.30;;;2.10;75.00;;;;;;5031865;28;20317;-70
2021/01/12 04:43:43;;;;;;;60.08;5.80;;;2.20;75.40;;;;;;5032122;28;20244;-70
2021/01/12 04:46:10;;;;;;;63.90;8.05;;;2.20;75.60;;;;;;5032293;28;20214;-69
2021/01/12 04:48:36;;;;;;;59.97;6.30;;;2.20;75.30;;;;;;5031745;28;20778;-71
2021/01/12 04:51:04;;;;;;;64.55;6.10;;;2.20;75.50;;;;;;5031729;28;20249;-71
2021/01/12 04:53:46;;;;;;;61.20;6.95;;;2.30;74.60;;;;;;5032015;28;20734;-70
2021/01/12 04:56:12;;;;;;;60.65;7.00;;;2.30;74.40;;;;;;5031906;28;20203;-70
2021/01/12 04:58:44;;;;;;;60.70;6.85;;;2.20;74.20;;;;;;5030927;28;20221;-70
2021/01/12 05:01:12;;;;;;;65.15;7.80;;;2.20;74.10;;;;;;5032015;28;20226;-70
2021/01/12 05:03:42;;;;;;;62.05;7.43;;;2.20;73.50;;;;;;5031835;28;20297;-69
2021/01/12 05:06:12;;;;;;;61.83;6.80;;;2.20;73.20;;;;;;5031908;28;20241;-70
2021/01/12 05:08:44;;;;;;;63.67;6.95;;;2.20;72.20;;;;;;5031218;28;20267;-70
2021/01/12 05:11:11;;;;;;;62.00;7.35;;;2.10;72.40;;;;;;5031553;28;20237;-70
2021/01/12 05:13:42;;;;;;;63.20;8.88;;;2.10;72.90;;;;;;5031834;28;20249;-70
2021/01/12 05:16:10;;;;;;;60.90;6.57;;;2.10;72.40;;;;;;5031831;28;20668;-70
2021/01/12 05:18:39;;;;;;;62.72;8.30;;;2.10;72.30;;;;;;5031850;28;20260;-70
2021/01/12 05:21:08;;;;;;;62.13;7.05;;;2.10;73.10;;;;;;5031473;28;20228;-70
2021/01/12 05:23:49;;;;;;;62.45;7.80;;;2.00;73.50;;;;;;5031901;28;20218;-70
2021/01/12 05:26:17;;;;;;;65.50;9.30;;;2.00;73.70;;;;;;5031978;28;20241;-70
2021/01/12 05:28:44;;;;;;;61.70;7.38;;;2.00;74.50;;;;;;5031242;28;20713;-70
2021/01/12 05:31:13;;;;;;;61.63;6.43;;;2.00;74.70;;;;;;5031125;28;20693;-71
2021/01/12 05:33:40;;;;;;;61.75;7.25;;;2.00;75.30;;;;;;5031360;28;20212;-70
2021/01/12 05:36:09;;;;;;;62.75;8.48;;;2.00;75.70;;;;;;5031542;28;20264;-70
2021/01/12 05:38:36;;;;;;;63.22;7.97;;;2.00;76.10;;;;;;5031328;28;20202;-70
2021/01/12 05:41:04;;;;;;;62.50;7.20;;;2.00;76.00;;;;;;5031114;28;20231;-70
2021/01/12 05:43:33;;;;;;;64.43;8.90;;;2.10;75.70;;;;;;5031495;28;20259;-70
2021/01/12 05:46:06;;;;;;;63.83;7.63;;;2.00;76.30;;;;;;5030955;28;20700;-69
2021/01/12 05:48:36;;;;;;;61.78;7.50;;;2.00;76.60;;;;;;5031287;28;20262;-70
2021/01/12 05:51:04;;;;;;;64.18;8.45;;;2.00;77.20;;;;;;5031854;28;20269;-70
2021/01/12 05:54:02;;;;;;;64.63;8.05;;;2.00;77.70;;;;;;5031412;28;20206;-70
2021/01/12 05:56:30;;;;;;;62.05;7.65;;;2.10;78.10;;;;;;5030998;28;20206;-71
2021/01/12 05:58:58;;;;;;;63.35;8.05;;;2.10;79.00;;;;;;5031222;28;20206;-70
2021/01/12 06:01:47;;;;;;;61.78;7.88;;;2.10;79.30;;;;;;5031179;28;20237;-70
2021/01/12 06:04:15;;;;;;;63.80;8.18;;;2.10;80.40;;;;;;5025655;28;20607;-71
2021/01/12 06:06:43;;;;;;;61.70;7.30;;;2.10;80.80;;;;;;5030982;28;20241;-70
2021/01/12 06:09:11;;;;;;;66.78;8.23;;;2.10;81.50;;;;;;5030846;28;20601;-70
2021/01/12 06:11:40;;;;;;;61.55;7.25;;;2.10;81.90;;;;;;5034680;28;20222;-70
2021/01/12 06:14:09;;;;;;;62.70;7.85;;;2.20;83.00;;;;;;5034960;28;20217;-70
2021/01/12 06:16:36;;;;;;;63.30;8.15;;;2.20;83.10;;;;;;5034885;28;20208;-71
2021/01/12 06:19:08;;;;;;;61.88;7.25;;;2.20;83.60;;;;;;5034417;28;20212;-70
2021/01/12 06:21:43;;;;;;;63.58;7.80;;;2.30;83.50;;;;;;5034626;28;20234;-70
2021/01/12 06:24:11;;;;;;;61.25;6.65;;;2.30;84.20;;;;;;5034870;28;20212;-70
2021/01/12 06:26:40;;;;;;;60.47;7.07;;;2.40;84.60;;;;;;5034940;28;20309;-71
2021/01/12 06:29:07;;;;;;;62.55;7.80;;;2.40;85.20;;;;;;5034262;28;20210;-70
2021/01/12 06:31:45;;;;;;;60.20;6.60;;;2.50;86.40;;;;;;5034600;28;20264;-71
2021/01/12 06:34:17;;;;;;;62.58;6.32;;;2.50;86.60;;;;;;5034733;28;20194;-70
2021/01/12 06:36:51;;;;;;;72.82;6.50;;;2.50;86.10;;;;;;5034902;28;20264;-71
2021/01/12 06:39:21;;;;;;;61.40;6.45;;;2.60;86.60;;;;;;5034031;28;20212;-71
2021/01/12 06:41:48;;;;;;;60.45;6.40;;;2.60;85.30;;;;;;5034856;28;20207;-70
2021/01/12 06:44:22;;;;;;;62.33;6.53;;;2.60;85.20;;;;;;5034382;28;20210;-71
2021/01/12 06:46:51;;;;;;;59.40;6.30;;;2.50;84.20;;;;;;5034183;28;20672;-71
2021/01/12 06:49:19;;;;;;;62.83;7.13;;;2.50;84.70;;;;;;5034149;28;20202;-71
2021/01/12 06:51:55;;;;;;;61.38;6.82;;;2.50;85.20;;;;;;5034583;28;20214;-69
2021/01/12 06:54:21;;;;;;;62.72;7.25;;;2.40;85.70;;;;;;5034955;28;20202;-69
2021/01/12 06:56:59;;;;;;;60.92;6.22;;;2.40;85.80;;;;;;5034868;28;20202;-69
2021/01/12 06:59:39;;;;;;;61.70;6.40;;;2.40;86.20;;;;;;5034322;28;20214;-69
2021/01/12 07:02:24;;;;;;;62.25;6.15;;;2.40;86.40;;;;;;5034475;28;20581;-69
2021/01/12 07:05:00;;;;;;;59.72;6.70;;;2.40;87.20;;;;;;5034355;28;20212;-69
2021/01/12 07:07:29;;;;;;;61.88;7.07;;;2.40;86.60;;;;;;5034784;28;20351;-69
2021/01/12 07:09:57;;;;;;;60.03;6.68;;;2.50;86.40;;;;;;5034453;28;20230;-69
2021/01/12 07:12:25;;;;;;;61.10;6.35;;;2.50;85.10;;;;;;5034888;28;20210;-69
2021/01/12 07:14:53;;;;;;;61.28;6.90;;;2.50;84.30;;;;;;5034839;28;20234;-70
2021/01/12 07:17:27;;;;;;;60.28;6.40;;;2.60;84.10;;;;;;5034118;28;20206;-69
2021/01/12 07:20:16;;;;;;;59.88;6.65;;;2.60;83.80;;;;;;5034006;28;20222;-70
2021/01/12 07:22:52;;;;;;;71.85;6.35;;;2.70;84.20;;;;;;5033237;28;20646;-70
2021/01/12 07:25:21;;;;;;;59.20;5.10;;;2.70;83.30;;;;;;5034282;28;20213;-70
2021/01/12 07:27:58;;;;;;;61.00;6.13;;;2.70;83.50;;;;;;5033617;28;20229;-69
2021/01/12 07:30:26;;;;;;;59.50;6.00;;;2.70;84.10;;;;;;5033782;28;20280;-71
2021/01/12 07:32:56;;;;;;;60.95;6.55;;;2.80;84.10;;;;;;5034351;28;20214;-69
2021/01/12 07:35:22;;;;;;;59.28;5.72;;;2.70;85.20;;;;;;5033715;28;20213;-70
2021/01/12 07:37:49;;;;;;;61.08;6.57;;;2.80;86.30;;;;;;5033236;28;20207;-70
2021/01/12 07:40:17;;;;;;;60.13;5.80;;;2.70;86.50;;;;;;5033548;28;20564;-70
2021/01/12 07:42:47;;;;;;;59.70;6.00;;;2.70;88.20;;;;;;5034179;28;20206;-70
2021/01/12 07:45:15;;;;;;;60.30;5.90;;;2.70;88.40;;;;;;5033664;28;20210;-69
2021/01/12 07:47:42;;;;;;;60.50;6.47;;;2.70;89.10;;;;;;5033175;28;20308;-69
2021/01/12 07:50:09;;;;;;;64.10;7.20;;;2.70;90.00;;;;;;5033587;28;20570;-69
2021/01/12 07:52:35;;;;;;;60.00;6.25;;;2.80;90.40;;;;;;5034345;28;20202;-69
2021/01/12 07:55:03;;;;;;;58.38;5.35;;;2.80;90.80;;;;;;5033458;28;20210;-70
2021/01/12 07:57:29;;;;;;;60.28;6.20;;;2.70;90.70;;;;;;5032901;28;20245;-69
2021/01/12 07:59:56;;;;;;;61.30;6.30;;;2.80;90.80;;;;;;5033096;28;20226;-70
2021/01/12 08:02:25;;;;;;;60.03;5.97;;;2.80;90.70;;;;;;5033211;28;20206;-70
2021/01/12 08:04:52;;;;;;;59.67;5.97;;;2.80;90.60;;;;;;5033054;28;20210;-70
2021/01/12 08:07:22;;;;;;;60.40;6.40;;;2.80;90.90;;;;;;5032756;28;20230;-69
2021/01/12 08:09:53;;;;;;;59.83;5.85;;;2.80;90.50;;;;;;5033078;28;20647;-69
2021/01/12 08:12:21;;;;;;;61.80;6.70;;;2.80;90.80;;;;;;5033098;28;20206;-69
2021/01/12 08:14:47;;;;;;;61.25;5.85;;;2.80;91.20;;;;;;5033522;28;20206;-69
2021/01/12 08:17:20;;;;;;;60.40;6.30;;;2.80;91.10;;;;;;5033048;28;20213;-69
2021/01/12 08:19:46;;;;;;;61.97;6.15;;;2.90;91.00;;;;;;5032756;28;20237;-69
2021/01/12 08:22:16;;;;;;;60.78;6.20;;;2.90;91.30;;;;;;5032714;28;20215;-69
2021/01/12 08:24:43;;;;;;;61.10;6.38;;;2.90;91.00;;;;;;5033249;28;20300;-69
2021/01/12 08:27:10;;;;;;;58.78;5.70;;;2.90;91.70;;;;;;5032746;28;20578;-69
2021/01/12 08:29:37;;;;;;;61.90;6.80;;;2.90;91.70;;;;;;5032271;28;20230;-69
2021/01/12 08:32:06;;;;;;;61.03;6.00;;;2.90;91.90;;;;;;5032425;28;20206;-69
2021/01/12 08:34:44;;;;;;;60.33;5.97;;;2.90;92.40;;;;;;5032567;28;20209;-69
2021/01/12 08:37:12;;;;;;;60.33;5.40;;;2.90;92.30;;;;;;5032497;28;20717;-70
2021/01/12 08:39:38;;;;;;;59.58;5.28;;;2.90;92.70;;;;;;5032380;28;20212;-69
2021/01/12 08:42:07;;;;;;;59.80;6.00;;;3.00;92.70;;;;;;5032851;28;20225;-69
2021/01/12 08:44:38;;;;;;;58.85;5.63;;;3.00;93.20;;;;;;5032512;28;20699;-69
2021/01/12 08:47:06;;;;;;;62.13;6.50;;;3.00;93.70;;;;;;5032388;28;20206;-70
2021/01/12 08:49:33;;;;;;;60.33;5.95;;;3.00;93.70;;;;;;5031655;28;20253;-69
2021/01/12 08:52:01;;;;;;;58.97;5.43;;;3.00;93.70;;;;;;5032863;28;20217;-69
2021/01/12 08:54:28;;;;;;;59.63;6.10;;;3.00;93.70;;;;;;5032400;28;20207;-69
2021/01/12 08:56:58;;;;;;;60.22;5.30;;;3.10;93.80;;;;;;5032142;28;20210;-70
2021/01/12 08:59:29;;;;;;;60.15;5.68;;;3.10;93.70;;;;;;5032168;28;20216;-70
2021/01/12 09:01:57;;;;;;;60.15;5.90;;;3.10;93.80;;;;;;5031867;28;20210;-69
2021/01/12 09:04:27;;;;;;;61.05;5.90;;;3.20;93.80;;;;;;5032507;28;20624;-68
2021/01/12 09:07:02;;;;;;;59.33;5.57;;;3.20;93.80;;;;;;5032008;28;20587;-69
2021/01/12 09:09:28;;;;;;;59.05;5.70;;;3.20;93.90;;;;;;5031797;28;20708;-69
2021/01/12 09:11:59;;;;;;;58.17;5.32;;;3.30;93.90;;;;;;5031783;28;20210;-69
2021/01/12 09:14:27;;;;;;;59.85;5.53;;;3.30;94.20;;;;;;5031801;28;20213;-70
2021/01/12 09:17:03;;;;;;;58.95;5.25;;;3.30;94.70;;;;;;5031985;28;20213;-69
2021/01/12 09:19:38;;;;;;;57.72;4.40;;;3.30;95.00;;;;;;5031562;28;20692;-70
2021/01/12 09:22:09;;;;;;;58.33;5.25;;;3.30;95.20;;;;;;5031784;28;20244;-70
2021/01/12 09:24:37;;;;;;;59.45;5.20;;;3.30;96.30;;;;;;5032369;28;20690;-70
2021/01/12 09:27:05;;;;;;;58.45;5.15;;;3.30;97.50;;;;;;5032247;28;20238;-69
2021/01/12 09:29:37;;;;;;;58.47;4.70;;;3.20;98.80;;;;;;5033114;28;20210;-70
2021/01/12 09:32:04;;;;;;;57.97;4.45;;;3.20;99.90;;;;;;5032216;28;20213;-69
2021/01/12 09:34:30;;;;;;;58.35;5.15;;;3.20;99.90;;;;;;5031414;28;20217;-68
2021/01/12 09:36:57;;;;;;;57.70;4.70;;;3.10;99.90;;;;;;5031537;28;20202;-69
2021/01/12 09:39:27;;;;;;;60.28;5.88;;;3.10;99.90;;;;;;5030769;28;20560;-69
2021/01/12 09:41:53;;;;;;;59.65;4.68;;;3.10;99.90;;;;;;5031397;28;20509;-69
2021/01/12 09:44:20;;;;;;;59.65;5.28;;;3.10;99.90;;;;;;5031678;28;20561;-69
2021/01/12 09:46:47;;;;;;;58.92;5.00;;;3.10;99.90;;;;;;5035274;28;20201;-68
2021/01/12 09:49:13;;;;;;;57.20;4.63;;;3.00;99.90;;;;;;5035070;28;20230;-68
2021/01/12 09:51:39;;;;;;;57.53;4.18;;;3.00;99.90;;;;;;5035282;28;20269;-68
2021/01/12 09:54:07;;;;;;;57.55;4.45;;;3.00;99.90;;;;;;5034975;28;20297;-70
2021/01/12 09:56:35;;;;;;;59.85;4.80;;;3.00;99.90;;;;;;5035424;28;20289;-68
2021/01/12 09:59:02;;;;;;;59.00;4.35;;;3.00;99.90;;;;;;5035122;28;20202;-71
2021/01/12 10:01:28;;;;;;;57.85;4.30;;;2.90;99.90;;;;;;5034560;28;20257;-70
2021/01/12 10:03:54;;;;;;;56.35;3.70;;;2.80;99.90;;;;;;5035281;28;20303;-70
2021/01/12 10:06:22;;;;;;;58.03;4.95;;;2.70;99.90;;;;;;5035064;28;20202;-70
2021/01/12 10:08:48;;;;;;;57.13;4.05;;;2.70;99.90;;;;;;5034824;28;20229;-71
2021/01/12 10:11:16;;;;;;;60.45;4.85;;;2.70;99.90;;;;;;5035319;28;20234;-71
2021/01/12 10:13:44;;;;;;;57.10;4.60;;;2.60;99.90;;;;;;5034949;28;20259;-72
2021/01/12 10:16:11;;;;;;;56.83;4.30;;;2.60;99.90;;;;;;5034944;28;20248;-71
2021/01/12 10:18:37;;;;;;;61.00;4.53;;;2.60;99.90;;;;;;5034615;28;20206;-68
2021/01/12 10:21:05;;;;;;;57.13;4.05;;;2.60;99.90;;;;;;5034595;28;20234;-69
2021/01/12 10:23:31;;;;;;;56.83;4.40;;;2.50;99.90;;;;;;5034996;28;20635;-69
2021/01/12 10:25:57;;;;;;;58.70;4.55;;;2.50;99.90;;;;;;5034716;28;20237;-69
2021/01/12 10:28:25;;;;;;;57.60;4.93;;;2.40;99.90;;;;;;5034861;28;20368;-68
2021/01/12 10:30:51;;;;;;;57.60;3.85;;;2.40;99.90;;;;;;5034504;28;20231;-69
2021/01/12 10:33:18;;;;;;;56.28;3.97;;;2.40;99.90;;;;;;5034601;28;20259;-71
2021/01/12 10:35:44;;;;;;;57.13;3.78;;;2.40;99.90;;;;;;5034370;28;20212;-69
2021/01/12 10:38:10;;;;;;;57.53;4.38;;;2.50;99.90;;;;;;5034406;28;20241;-71
2021/01/12 10:40:37;;;;;;;58.10;4.43;;;2.50;99.90;;;;;;5034396;28;20230;-69
2021/01/12 10:43:04;;;;;;;59.17;4.53;;;2.50;99.90;;;;;;5034373;28;20210;-71
2021/01/12 10:45:31;;;;;;;61.80;5.30;;;2.40;99.90;;;;;;5034491;28;20237;-71
2021/01/12 10:47:57;;;;;;;57.83;4.47;;;2.50;99.90;;;;;;5033944;28;20272;-71
2021/01/12 10:50:24;;;;;;;58.80;4.20;;;2.50;99.90;;;;;;5034150;28;20230;-72
2021/01/12 10:52:50;;;;;;;58.05;3.85;;;2.50;99.90;;;;;;5034418;28;20205;-69
2021/01/12 10:55:17;;;;;;;60.90;4.45;;;2.60;99.90;;;;;;5034364;28;20207;-70
2021/01/12 10:57:44;;;;;;;57.60;4.55;;;2.60;99.90;;;;;;5032674;28;20248;-71
2021/01/12 11:00:16;;;;;;;56.90;4.03;;;2.60;99.90;;;;;;5034035;28;20233;-70
2021/01/12 11:02:43;;;;;;;56.78;4.20;;;2.60;99.90;;;;;;5033288;28;20294;-70
2021/01/12 11:05:10;;;;;;;56.63;3.78;;;2.70;99.90;;;;;;5033267;28;20468;-69
2021/01/12 11:07:43;;;;;;;60.10;4.15;;;2.70;99.90;;;;;;5033775;28;20230;-70
2021/01/12 11:10:11;;;;;;;56.97;4.05;;;2.70;99.90;;;;;;5033894;28;20225;-70
2021/01/12 11:12:37;;;;;;;56.72;3.25;;;2.70;99.90;;;;;;5033860;28;20212;-70
2021/01/12 11:15:07;;;;;;;56.92;3.75;;;2.70;99.90;;;;;;5033786;28;20852;-70
2021/01/12 11:17:34;;;;;;;57.17;3.60;;;2.70;99.90;;;;;;5033413;28;20261;-72
2021/01/12 11:20:04;;;;;;;56.35;3.40;;;2.70;99.90;;;;;;5033674;28;20233;-70
2021/01/12 11:22:31;;;;;;;56.30;3.78;;;2.70;99.90;;;;;;5033896;28;20203;-71
2021/01/12 11:25:00;;;;;;;57.38;3.85;;;2.70;99.90;;;;;;5033675;28;20203;-72
2021/01/12 11:27:27;;;;;;;56.00;3.42;;;2.70;99.90;;;;;;5033527;28;20582;-71
2021/01/12 11:29:54;;;;;;;55.70;3.38;;;2.70;99.90;;;;;;5032953;28;20262;-71
2021/01/12 11:32:21;;;;;;;56.22;3.97;;;2.70;99.90;;;;;;5033734;28;20214;-74
2021/01/12 11:34:49;;;;;;;56.60;3.40;;;2.80;99.90;;;;;;5033473;28;20269;-71
2021/01/12 11:37:16;;;;;;;55.95;3.00;;;2.80;99.90;;;;;;5033783;28;20202;-71
2021/01/12 11:39:43;;;;;;;56.00;3.10;;;2.80;99.90;;;;;;5033045;28;20221;-72
2021/01/12 11:42:11;;;;;;;56.65;3.25;;;2.70;99.90;;;;;;5033223;28;20216;-71
2021/01/12 11:44:37;;;;;;;56.90;3.40;;;2.80;99.90;;;;;;5033206;28;20203;-71
2021/01/12 11:47:04;;;;;;;56.55;3.50;;;2.80;99.90;;;;;;5032904;28;20202;-70
2021/01/12 11:49:31;;;;;;;56.45;2.97;;;2.80;99.90;;;;;;5033074;28;20257;-68
2021/01/12 11:51:57;;;;;;;56.17;3.33;;;2.80;99.90;;;;;;5032981;28;20203;-69
2021/01/12 11:54:24;;;;;;;55.65;3.70;;;2.90;99.90;;;;;;5033038;28;20633;-70
2021/01/12 11:56:52;;;;;;;56.28;3.20;;;2.90;99.90;;;;;;5031066;28;20297;-72
2021/01/12 11:59:19;;;;;;;55.75;3.13;;;2.90;99.90;;;;;;5032881;28;20490;-70
2021/01/12 12:01:46;;;;;;;59.63;2.95;;;2.90;99.90;;;;;;5033228;28;20249;-70
2021/01/12 12:04:13;;;;;;;56.28;3.13;;;2.90;99.90;;;;;;5033539;28;20332;-70
2021/01/12 12:06:39;;;;;;;57.88;3.50;;;2.90;99.90;;;;;;5033332;28;20214;-72
2021/01/12 12:09:07;;;;;;;56.50;3.35;;;2.90;99.90;;;;;;5032092;28;20229;-70
2021/01/12 12:11:38;;;;;;;56.13;3.13;;;3.00;99.90;;;;;;5032686;28;20233;-71
2021/01/12 12:14:06;;;;;;;55.88;3.05;;;3.10;99.90;;;;;;5032961;28;20589;-70
2021/01/12 12:16:33;;;;;;;57.10;3.10;;;3.00;99.90;;;;;;5033299;28;20293;-70
2021/01/12 12:19:00;;;;;;;56.95;3.15;;;3.00;99.90;;;;;;5032969;28;20202;-70
2021/01/12 12:21:26;;;;;;;57.03;2.85;;;3.00;99.90;;;;;;5031719;28;20309;-70
2021/01/12 12:23:53;;;;;;;56.13;3.20;;;3.00;99.90;;;;;;5032363;28;20206;-70
2021/01/12 12:26:19;;;;;;;55.50;2.50;;;3.00;99.90;;;;;;5032864;28;20622;-69
2021/01/12 12:28:46;;;;;;;56.15;3.00;;;3.00;99.90;;;;;;5031629;28;20237;-71
2021/01/12 12:31:13;;;;;;;56.17;3.15;;;3.00;99.90;;;;;;5032162;28;20276;-71
2021/01/12 12:33:40;;;;;;;55.58;2.80;;;3.00;99.90;;;;;;5032419;28;20217;-70
2021/01/12 12:36:08;;;;;;;55.97;2.92;;;3.00;99.90;;;;;;5032228;28;20206;-70
2021/01/12 12:38:35;;;;;;;55.03;2.67;;;3.00;99.90;;;;;;5031848;28;20249;-72
2021/01/12 12:41:06;;;;;;;57.40;2.90;;;3.00;99.90;;;;;;5031712;28;20226;-70
2021/01/12 12:43:33;;;;;;;59.30;3.10;;;3.00;99.90;;;;;;5032557;28;20209;-71
2021/01/12 12:46:00;;;;;;;56.65;2.90;;;3.00;99.90;;;;;;5032202;28;20206;-70
2021/01/12 12:48:27;;;;;;;56.03;2.80;;;3.00;99.90;;;;;;5031770;28;20702;-71